sensor_id;sensor_type;location;lat;lon;timestamp;P1;durP1;ratioP1;P2;durP2;ratioP2
76121;SDS011;64853;53.200;6.080;2022-12-29T00:00:48;0.10;;;0.10;;
76121;SDS011;64853;53.200;6.080;2022-12-29T00:05:41;0.20;;;0.10;;
76121;SDS011;64853;53.200;6.080;2022-12-29T00:10:32;0.20;;;0.10;;
76121;SDS011;64853;53.200;6.080;2022-12-29T00:20:32;0.20;;;0.10;;
76121;SDS011;64853;53.200;6.080;2022-12-29T00:25:43;0.10;;;0.10;;
76121;SDS011;64853;53.200;6.080;2022-12-29T00:30:58;0.17;;;0.10;;
76121;SDS011;64853;53.200;6.080;2022-12-29T00:36:09;0.13;;;0.10;;
76121;SDS011;64853;53.200;6.080;2022-12-29T00:41:07;0.25;;;0.10;;
76121;SDS011;64853;53.200;6.080;2022-12-29T00:46:16;0.32;;;0.10;;
76121;SDS011;64853;53.200;6.080;2022-12-29T00:51:08;0.00;;;0.00;;
76121;SDS011;64853;53.200;6.080;2022-12-29T01:00:52;0.10;;;0.00;;
76121;SDS011;64853;53.200;6.080;2022-12-29T01:05:44;0.45;;;0.17;;
76121;SDS011;64853;53.200;6.080;2022-12-29T01:15:26;0.25;;;0.10;;
76121;SDS011;64853;53.200;6.080;2022-12-29T01:20:19;0.60;;;0.20;;
76121;SDS011;64853;53.200;6.080;2022-12-29T01:25:11;0.10;;;0.10;;
76121;SDS011;64853;53.200;6.080;2022-12-29T01:30:02;0.20;;;0.10;;
76121;SDS011;64853;53.200;6.080;2022-12-29T01:34:55;0.10;;;0.10;;
76121;SDS011;64853;53.200;6.080;2022-12-29T01:39:47;0.30;;;0.10;;
76121;SDS011;64853;53.200;6.080;2022-12-29T01:44:49;0.43;;;0.20;;
76121;SDS011;64853;53.200;6.080;2022-12-29T01:49:42;0.30;;;0.10;;
76121;SDS011;64853;53.200;6.080;2022-12-29T01:54:35;0.35;;;0.20;;
76121;SDS011;64853;53.200;6.080;2022-12-29T01:59:32;0.13;;;0.10;;
76121;SDS011;64853;53.200;6.080;2022-12-29T02:04:29;0.00;;;0.00;;
76121;SDS011;64853;53.200;6.080;2022-12-29T02:09:23;0.10;;;0.10;;
76121;SDS011;64853;53.200;6.080;2022-12-29T02:14:15;0.13;;;0.10;;
76121;SDS011;64853;53.200;6.080;2022-12-29T02:19:19;0.28;;;0.10;;
76121;SDS011;64853;53.200;6.080;2022-12-29T02:30:03;0.40;;;0.30;;
76121;SDS011;64853;53.200;6.080;2022-12-29T02:35:01;0.30;;;0.10;;
76121;SDS011;64853;53.200;6.080;2022-12-29T02:40:00;0.10;;;0.00;;
76121;SDS011;64853;53.200;6.080;2022-12-29T02:45:02;0.20;;;0.10;;
76121;SDS011;64853;53.200;6.080;2022-12-29T02:49:57;0.20;;;0.10;;
76121;SDS011;64853;53.200;6.080;2022-12-29T02:54:54;0.17;;;0.10;;
76121;SDS011;64853;53.200;6.080;2022-12-29T02:59:46;0.20;;;0.20;;
76121;SDS011;64853;53.200;6.080;2022-12-29T03:04:43;0.00;;;0.00;;
76121;SDS011;64853;53.200;6.080;2022-12-29T03:09:57;0.05;;;0.05;;
76121;SDS011;64853;53.200;6.080;2022-12-29T03:14:56;0.40;;;0.10;;
76121;SDS011;64853;53.200;6.080;2022-12-29T03:20:11;0.28;;;0.10;;
76121;SDS011;64853;53.200;6.080;2022-12-29T03:25:10;0.03;;;0.00;;
76121;SDS011;64853;53.200;6.080;2022-12-29T03:30:06;0.10;;;0.10;;
76121;SDS011;64853;53.200;6.080;2022-12-29T03:34:59;0.28;;;0.10;;
76121;SDS011;64853;53.200;6.080;2022-12-29T03:39:52;0.20;;;0.10;;
76121;SDS011;64853;53.200;6.080;2022-12-29T03:44:44;0.10;;;0.00;;
76121;SDS011;64853;53.200;6.080;2022-12-29T03:49:36;0.43;;;0.35;;
76121;SDS011;64853;53.200;6.080;2022-12-29T03:54:28;0.13;;;0.10;;
76121;SDS011;64853;53.200;6.080;2022-12-29T03:59:21;0.55;;;0.20;;
76121;SDS011;64853;53.200;6.080;2022-12-29T04:04:13;0.03;;;0.03;;
76121;SDS011;64853;53.200;6.080;2022-12-29T04:09:04;0.63;;;0.20;;
76121;SDS011;64853;53.200;6.080;2022-12-29T04:13:56;0.20;;;0.10;;
76121;SDS011;64853;53.200;6.080;2022-12-29T04:18:49;0.17;;;0.00;;
76121;SDS011;64853;53.200;6.080;2022-12-29T04:23:40;0.00;;;0.00;;
76121;SDS011;64853;53.200;6.080;2022-12-29T04:28:32;0.10;;;0.00;;
76121;SDS011;64853;53.200;6.080;2022-12-29T04:33:23;0.10;;;0.00;;
76121;SDS011;64853;53.200;6.080;2022-12-29T04:43:08;0.10;;;0.10;;
76121;SDS011;64853;53.200;6.080;2022-12-29T04:48:00;0.10;;;0.10;;
76121;SDS011;64853;53.200;6.080;2022-12-29T04:52:51;0.20;;;0.10;;
76121;SDS011;64853;53.200;6.080;2022-12-29T04:57:44;0.75;;;0.10;;
76121;SDS011;64853;53.200;6.080;2022-12-29T05:02:36;0.13;;;0.10;;
76121;SDS011;64853;53.200;6.080;2022-12-29T05:07:27;2.05;;;0.10;;
76121;SDS011;64853;53.200;6.080;2022-12-29T05:12:19;0.40;;;0.00;;
76121;SDS011;64853;53.200;6.080;2022-12-29T05:17:12;0.55;;;0.10;;
76121;SDS011;64853;53.200;6.080;2022-12-29T05:22:03;0.57;;;0.00;;
76121;SDS011;64853;53.200;6.080;2022-12-29T05:26:55;0.80;;;0.10;;
76121;SDS011;64853;53.200;6.080;2022-12-29T05:31:46;0.10;;;0.10;;
76121;SDS011;64853;53.200;6.080;2022-12-29T05:36:39;0.20;;;0.10;;
76121;SDS011;64853;53.200;6.080;2022-12-29T05:41:31;0.80;;;0.22;;
76121;SDS011;64853;53.200;6.080;2022-12-29T05:46:22;0.20;;;0.10;;
76121;SDS011;64853;53.200;6.080;2022-12-29T05:51:14;0.63;;;0.17;;
76121;SDS011;64853;53.200;6.080;2022-12-29T05:56:07;0.25;;;0.20;;
76121;SDS011;64853;53.200;6.080;2022-12-29T06:00:58;0.60;;;0.10;;
76121;SDS011;64853;53.200;6.080;2022-12-29T06:05:50;1.15;;;0.70;;
76121;SDS011;64853;53.200;6.080;2022-12-29T06:10:41;0.55;;;0.10;;
76121;SDS011;64853;53.200;6.080;2022-12-29T06:15:34;0.40;;;0.10;;
76121;SDS011;64853;53.200;6.080;2022-12-29T06:20:26;0.57;;;0.22;;
76121;SDS011;64853;53.200;6.080;2022-12-29T06:25:18;0.40;;;0.20;;
76121;SDS011;64853;53.200;6.080;2022-12-29T06:30:10;0.25;;;0.15;;
76121;SDS011;64853;53.200;6.080;2022-12-29T06:35:04;1.45;;;0.30;;
76121;SDS011;64853;53.200;6.080;2022-12-29T06:39:56;1.23;;;0.30;;
76121;SDS011;64853;53.200;6.080;2022-12-29T06:44:48;1.38;;;0.32;;
76121;SDS011;64853;53.200;6.080;2022-12-29T06:54:32;2.17;;;0.85;;
76121;SDS011;64853;53.200;6.080;2022-12-29T06:59:24;2.05;;;0.35;;
76121;SDS011;64853;53.200;6.080;2022-12-29T07:04:15;1.10;;;0.25;;
76121;SDS011;64853;53.200;6.080;2022-12-29T07:09:07;1.23;;;0.30;;
76121;SDS011;64853;53.200;6.080;2022-12-29T07:14:00;0.95;;;0.38;;
76121;SDS011;64853;53.200;6.080;2022-12-29T07:18:52;0.60;;;0.30;;
76121;SDS011;64853;53.200;6.080;2022-12-29T07:23:43;2.08;;;0.35;;
76121;SDS011;64853;53.200;6.080;2022-12-29T07:28:35;1.15;;;0.20;;
76121;SDS011;64853;53.200;6.080;2022-12-29T07:33:29;1.10;;;0.20;;
76121;SDS011;64853;53.200;6.080;2022-12-29T07:38:21;1.13;;;0.30;;
76121;SDS011;64853;53.200;6.080;2022-12-29T07:43:13;1.02;;;0.50;;
76121;SDS011;64853;53.200;6.080;2022-12-29T07:48:05;4.20;;;0.85;;
76121;SDS011;64853;53.200;6.080;2022-12-29T07:52:58;1.25;;;0.28;;
76121;SDS011;64853;53.200;6.080;2022-12-29T07:57:52;2.67;;;0.30;;
76121;SDS011;64853;53.200;6.080;2022-12-29T08:02:44;2.28;;;0.52;;
76121;SDS011;64853;53.200;6.080;2022-12-29T08:07:35;2.08;;;0.55;;
76121;SDS011;64853;53.200;6.080;2022-12-29T08:12:28;4.03;;;0.50;;
76121;SDS011;64853;53.200;6.080;2022-12-29T08:17:19;2.58;;;0.63;;
76121;SDS011;64853;53.200;6.080;2022-12-29T08:22:12;1.35;;;0.50;;
76121;SDS011;64853;53.200;6.080;2022-12-29T08:27:04;2.20;;;0.45;;
76121;SDS011;64853;53.200;6.080;2022-12-29T08:31:57;3.13;;;0.68;;
76121;SDS011;64853;53.200;6.080;2022-12-29T08:36:48;2.47;;;0.40;;
76121;SDS011;64853;53.200;6.080;2022-12-29T08:41:40;3.35;;;0.60;;
76121;SDS011;64853;53.200;6.080;2022-12-29T08:46:31;1.77;;;0.22;;
76121;SDS011;64853;53.200;6.080;2022-12-29T08:51:24;3.08;;;0.60;;
76121;SDS011;64853;53.200;6.080;2022-12-29T08:56:15;1.80;;;0.68;;
76121;SDS011;64853;53.200;6.080;2022-12-29T09:05:58;4.43;;;1.02;;
76121;SDS011;64853;53.200;6.080;2022-12-29T09:10:51;3.35;;;0.43;;
76121;SDS011;64853;53.200;6.080;2022-12-29T09:15:43;4.43;;;0.80;;
76121;SDS011;64853;53.200;6.080;2022-12-29T09:20:34;4.13;;;0.65;;
76121;SDS011;64853;53.200;6.080;2022-12-29T09:25:26;2.55;;;0.80;;
76121;SDS011;64853;53.200;6.080;2022-12-29T09:30:20;2.70;;;0.52;;
76121;SDS011;64853;53.200;6.080;2022-12-29T09:35:12;2.45;;;0.63;;
76121;SDS011;64853;53.200;6.080;2022-12-29T09:40:05;2.92;;;0.70;;
76121;SDS011;64853;53.200;6.080;2022-12-29T09:45:04;4.28;;;0.65;;
76121;SDS011;64853;53.200;6.080;2022-12-29T09:50:12;2.20;;;0.68;;
76121;SDS011;64853;53.200;6.080;2022-12-29T09:55:10;2.22;;;0.43;;
76121;SDS011;64853;53.200;6.080;2022-12-29T10:00:11;2.42;;;0.63;;
76121;SDS011;64853;53.200;6.080;2022-12-29T10:05:16;1.50;;;0.43;;
76121;SDS011;64853;53.200;6.080;2022-12-29T10:15:13;4.00;;;0.55;;
76121;SDS011;64853;53.200;6.080;2022-12-29T10:20:28;3.10;;;0.77;;
76121;SDS011;64853;53.200;6.080;2022-12-29T10:25:24;3.70;;;1.00;;
76121;SDS011;64853;53.200;6.080;2022-12-29T10:30:17;6.55;;;1.45;;
76121;SDS011;64853;53.200;6.080;2022-12-29T10:35:10;9.38;;;1.55;;
76121;SDS011;64853;53.200;6.080;2022-12-29T10:40:14;3.63;;;0.93;;
76121;SDS011;64853;53.200;6.080;2022-12-29T10:45:11;4.25;;;1.08;;
76121;SDS011;64853;53.200;6.080;2022-12-29T10:50:05;2.38;;;0.65;;
76121;SDS011;64853;53.200;6.080;2022-12-29T10:54:58;4.72;;;0.75;;
76121;SDS011;64853;53.200;6.080;2022-12-29T10:59:55;1.05;;;0.45;;
76121;SDS011;64853;53.200;6.080;2022-12-29T11:04:48;2.83;;;0.73;;
76121;SDS011;64853;53.200;6.080;2022-12-29T11:14:36;2.33;;;1.33;;
76121;SDS011;64853;53.200;6.080;2022-12-29T11:19:31;2.33;;;1.00;;
76121;SDS011;64853;53.200;6.080;2022-12-29T11:24:24;3.83;;;1.50;;
76121;SDS011;64853;53.200;6.080;2022-12-29T11:29:22;4.82;;;1.73;;
76121;SDS011;64853;53.200;6.080;2022-12-29T11:34:17;4.05;;;1.08;;
76121;SDS011;64853;53.200;6.080;2022-12-29T11:39:18;2.00;;;0.90;;
76121;SDS011;64853;53.200;6.080;2022-12-29T11:44:24;3.45;;;1.40;;
76121;SDS011;64853;53.200;6.080;2022-12-29T11:49:19;3.03;;;0.90;;
76121;SDS011;64853;53.200;6.080;2022-12-29T12:04:28;2.58;;;0.95;;
76121;SDS011;64853;53.200;6.080;2022-12-29T12:09:26;4.35;;;0.80;;
76121;SDS011;64853;53.200;6.080;2022-12-29T12:14:23;3.20;;;0.75;;
76121;SDS011;64853;53.200;6.080;2022-12-29T12:19:27;2.05;;;0.80;;
76121;SDS011;64853;53.200;6.080;2022-12-29T12:24:30;2.00;;;0.57;;
76121;SDS011;64853;53.200;6.080;2022-12-29T12:29:30;1.88;;;0.60;;
76121;SDS011;64853;53.200;6.080;2022-12-29T12:34:29;4.68;;;1.05;;
76121;SDS011;64853;53.200;6.080;2022-12-29T12:39:26;4.25;;;0.95;;
76121;SDS011;64853;53.200;6.080;2022-12-29T12:44:24;2.58;;;0.90;;
76121;SDS011;64853;53.200;6.080;2022-12-29T12:54:30;2.78;;;0.60;;
76121;SDS011;64853;53.200;6.080;2022-12-29T12:59:35;2.35;;;0.50;;
76121;SDS011;64853;53.200;6.080;2022-12-29T13:04:39;3.17;;;0.40;;
76121;SDS011;64853;53.200;6.080;2022-12-29T13:09:47;2.67;;;0.60;;
76121;SDS011;64853;53.200;6.080;2022-12-29T13:14:50;2.75;;;0.50;;
76121;SDS011;64853;53.200;6.080;2022-12-29T13:19:53;1.38;;;0.77;;
76121;SDS011;64853;53.200;6.080;2022-12-29T13:24:53;3.17;;;0.60;;
76121;SDS011;64853;53.200;6.080;2022-12-29T13:29:54;3.60;;;0.85;;
76121;SDS011;64853;53.200;6.080;2022-12-29T13:34:56;1.80;;;0.50;;
76121;SDS011;64853;53.200;6.080;2022-12-29T13:39:59;1.65;;;0.50;;
76121;SDS011;64853;53.200;6.080;2022-12-29T13:44:54;3.22;;;0.63;;
76121;SDS011;64853;53.200;6.080;2022-12-29T13:49:50;0.73;;;0.40;;
76121;SDS011;64853;53.200;6.080;2022-12-29T13:54:48;2.08;;;0.57;;
76121;SDS011;64853;53.200;6.080;2022-12-29T13:59:50;2.05;;;0.63;;
76121;SDS011;64853;53.200;6.080;2022-12-29T14:05:00;1.30;;;0.40;;
76121;SDS011;64853;53.200;6.080;2022-12-29T14:09:55;0.90;;;0.45;;
76121;SDS011;64853;53.200;6.080;2022-12-29T14:14:48;0.98;;;0.40;;
76121;SDS011;64853;53.200;6.080;2022-12-29T14:19:40;2.72;;;0.60;;
76121;SDS011;64853;53.200;6.080;2022-12-29T14:34:38;1.48;;;0.70;;
76121;SDS011;64853;53.200;6.080;2022-12-29T14:39:31;0.57;;;0.22;;
76121;SDS011;64853;53.200;6.080;2022-12-29T14:44:26;1.90;;;0.50;;
76121;SDS011;64853;53.200;6.080;2022-12-29T14:49:20;1.25;;;0.30;;
76121;SDS011;64853;53.200;6.080;2022-12-29T14:59:35;1.13;;;0.30;;
76121;SDS011;64853;53.200;6.080;2022-12-29T15:04:30;1.67;;;0.40;;
76121;SDS011;64853;53.200;6.080;2022-12-29T15:09:24;1.17;;;0.40;;
76121;SDS011;64853;53.200;6.080;2022-12-29T15:14:35;1.25;;;0.40;;
76121;SDS011;64853;53.200;6.080;2022-12-29T15:19:30;2.53;;;0.30;;
76121;SDS011;64853;53.200;6.080;2022-12-29T15:24:22;1.48;;;0.40;;
76121;SDS011;64853;53.200;6.080;2022-12-29T15:29:28;1.70;;;0.50;;
76121;SDS011;64853;53.200;6.080;2022-12-29T15:34:21;1.95;;;0.40;;
76121;SDS011;64853;53.200;6.080;2022-12-29T15:39:20;2.28;;;0.55;;
76121;SDS011;64853;53.200;6.080;2022-12-29T15:44:19;2.65;;;0.63;;
76121;SDS011;64853;53.200;6.080;2022-12-29T15:49:14;2.40;;;0.63;;
76121;SDS011;64853;53.200;6.080;2022-12-29T15:54:12;3.05;;;1.88;;
76121;SDS011;64853;53.200;6.080;2022-12-29T15:59:18;1.27;;;0.60;;
76121;SDS011;64853;53.200;6.080;2022-12-29T16:04:14;2.78;;;0.43;;
76121;SDS011;64853;53.200;6.080;2022-12-29T16:09:06;1.83;;;0.55;;
76121;SDS011;64853;53.200;6.080;2022-12-29T16:14:06;1.67;;;0.30;;
76121;SDS011;64853;53.200;6.080;2022-12-29T16:19:02;2.22;;;0.50;;
76121;SDS011;64853;53.200;6.080;2022-12-29T16:24:01;1.17;;;0.32;;
76121;SDS011;64853;53.200;6.080;2022-12-29T16:28:57;0.98;;;0.20;;
76121;SDS011;64853;53.200;6.080;2022-12-29T16:33:51;1.08;;;0.32;;
76121;SDS011;64853;53.200;6.080;2022-12-29T16:38:46;0.95;;;0.20;;
76121;SDS011;64853;53.200;6.080;2022-12-29T16:43:37;1.77;;;0.35;;
76121;SDS011;64853;53.200;6.080;2022-12-29T16:48:32;0.98;;;0.20;;
76121;SDS011;64853;53.200;6.080;2022-12-29T16:53:26;9.30;;;2.05;;
76121;SDS011;64853;53.200;6.080;2022-12-29T16:58:22;2.55;;;0.30;;
76121;SDS011;64853;53.200;6.080;2022-12-29T17:03:19;1.25;;;0.30;;
76121;SDS011;64853;53.200;6.080;2022-12-29T17:08:16;1.50;;;0.30;;
76121;SDS011;64853;53.200;6.080;2022-12-29T17:13:12;1.95;;;0.30;;
76121;SDS011;64853;53.200;6.080;2022-12-29T17:18:06;0.93;;;0.30;;
76121;SDS011;64853;53.200;6.080;2022-12-29T17:22:59;0.50;;;0.17;;
76121;SDS011;64853;53.200;6.080;2022-12-29T17:27:51;1.13;;;0.30;;
76121;SDS011;64853;53.200;6.080;2022-12-29T17:32:48;0.80;;;0.22;;
76121;SDS011;64853;53.200;6.080;2022-12-29T17:37:43;2.05;;;0.50;;
76121;SDS011;64853;53.200;6.080;2022-12-29T17:42:36;0.65;;;0.22;;
76121;SDS011;64853;53.200;6.080;2022-12-29T17:47:32;0.85;;;0.22;;
76121;SDS011;64853;53.200;6.080;2022-12-29T17:52:25;1.55;;;0.20;;
76121;SDS011;64853;53.200;6.080;2022-12-29T17:57:19;1.60;;;0.30;;
76121;SDS011;64853;53.200;6.080;2022-12-29T18:02:24;1.15;;;0.20;;
76121;SDS011;64853;53.200;6.080;2022-12-29T18:07:19;1.15;;;0.30;;
76121;SDS011;64853;53.200;6.080;2022-12-29T18:12:11;1.30;;;0.30;;
76121;SDS011;64853;53.200;6.080;2022-12-29T18:17:19;1.90;;;0.38;;
76121;SDS011;64853;53.200;6.080;2022-12-29T18:22:10;0.65;;;0.30;;
76121;SDS011;64853;53.200;6.080;2022-12-29T18:27:04;0.70;;;0.30;;
76121;SDS011;64853;53.200;6.080;2022-12-29T18:32:04;0.85;;;0.30;;
76121;SDS011;64853;53.200;6.080;2022-12-29T18:36:57;0.88;;;0.30;;
76121;SDS011;64853;53.200;6.080;2022-12-29T18:41:49;1.60;;;0.28;;
76121;SDS011;64853;53.200;6.080;2022-12-29T18:46:43;0.75;;;0.25;;
76121;SDS011;64853;53.200;6.080;2022-12-29T18:51:35;1.98;;;0.63;;
76121;SDS011;64853;53.200;6.080;2022-12-29T18:56:27;0.40;;;0.20;;
76121;SDS011;64853;53.200;6.080;2022-12-29T19:01:19;2.30;;;0.32;;
76121;SDS011;64853;53.200;6.080;2022-12-29T19:06:12;1.27;;;0.20;;
76121;SDS011;64853;53.200;6.080;2022-12-29T19:11:05;1.27;;;0.57;;
76121;SDS011;64853;53.200;6.080;2022-12-29T19:15:56;3.30;;;0.30;;
76121;SDS011;64853;53.200;6.080;2022-12-29T19:20:49;0.95;;;0.30;;
76121;SDS011;64853;53.200;6.080;2022-12-29T19:25:41;1.27;;;0.30;;
76121;SDS011;64853;53.200;6.080;2022-12-29T19:30:35;2.00;;;0.68;;
76121;SDS011;64853;53.200;6.080;2022-12-29T19:35:27;1.95;;;0.50;;
76121;SDS011;64853;53.200;6.080;2022-12-29T19:40:20;2.17;;;0.47;;
76121;SDS011;64853;53.200;6.080;2022-12-29T19:45:13;1.30;;;0.50;;
76121;SDS011;64853;53.200;6.080;2022-12-29T19:50:07;0.57;;;0.20;;
76121;SDS011;64853;53.200;6.080;2022-12-29T19:55:00;2.00;;;0.60;;
76121;SDS011;64853;53.200;6.080;2022-12-29T19:59:52;1.80;;;0.40;;
76121;SDS011;64853;53.200;6.080;2022-12-29T20:04:44;1.25;;;0.60;;
76121;SDS011;64853;53.200;6.080;2022-12-29T20:09:37;2.60;;;0.43;;
76121;SDS011;64853;53.200;6.080;2022-12-29T20:14:32;1.35;;;0.50;;
76121;SDS011;64853;53.200;6.080;2022-12-29T20:24:15;1.63;;;0.52;;
76121;SDS011;64853;53.200;6.080;2022-12-29T20:29:08;2.33;;;0.38;;
76121;SDS011;64853;53.200;6.080;2022-12-29T20:34:00;3.35;;;0.65;;
76121;SDS011;64853;53.200;6.080;2022-12-29T20:38:53;0.88;;;0.40;;
76121;SDS011;64853;53.200;6.080;2022-12-29T20:43:46;1.45;;;0.43;;
76121;SDS011;64853;53.200;6.080;2022-12-29T20:48:39;1.55;;;0.20;;
76121;SDS011;64853;53.200;6.080;2022-12-29T20:53:31;1.60;;;0.60;;
76121;SDS011;64853;53.200;6.080;2022-12-29T20:58:24;2.65;;;0.80;;
76121;SDS011;64853;53.200;6.080;2022-12-29T21:03:15;2.00;;;0.85;;
76121;SDS011;64853;53.200;6.080;2022-12-29T21:08:08;1.65;;;0.32;;
76121;SDS011;64853;53.200;6.080;2022-12-29T21:13:00;2.05;;;0.40;;
76121;SDS011;64853;53.200;6.080;2022-12-29T21:17:52;2.80;;;1.02;;
76121;SDS011;64853;53.200;6.080;2022-12-29T21:22:44;1.40;;;0.73;;
76121;SDS011;64853;53.200;6.080;2022-12-29T21:27:37;2.60;;;0.68;;
76121;SDS011;64853;53.200;6.080;2022-12-29T21:32:31;1.92;;;0.40;;
76121;SDS011;64853;53.200;6.080;2022-12-29T21:37:23;1.60;;;0.47;;
76121;SDS011;64853;53.200;6.080;2022-12-29T21:42:14;2.38;;;0.47;;
76121;SDS011;64853;53.200;6.080;2022-12-29T21:47:09;1.33;;;0.50;;
76121;SDS011;64853;53.200;6.080;2022-12-29T21:52:00;1.80;;;0.50;;
76121;SDS011;64853;53.200;6.080;2022-12-29T21:56:52;0.95;;;0.30;;
76121;SDS011;64853;53.200;6.080;2022-12-29T22:01:46;1.77;;;0.30;;
76121;SDS011;64853;53.200;6.080;2022-12-29T22:06:56;1.05;;;0.30;;
76121;SDS011;64853;53.200;6.080;2022-12-29T22:12:05;1.70;;;0.30;;
76121;SDS011;64853;53.200;6.080;2022-12-29T22:17:14;2.20;;;0.32;;
76121;SDS011;64853;53.200;6.080;2022-12-29T22:22:07;1.30;;;0.20;;
76121;SDS011;64853;53.200;6.080;2022-12-29T22:26:58;0.95;;;0.20;;
76121;SDS011;64853;53.200;6.080;2022-12-29T22:31:50;1.20;;;0.25;;
76121;SDS011;64853;53.200;6.080;2022-12-29T22:36:41;1.83;;;0.45;;
76121;SDS011;64853;53.200;6.080;2022-12-29T22:41:34;0.93;;;0.32;;
76121;SDS011;64853;53.200;6.080;2022-12-29T22:46:26;1.13;;;0.28;;
76121;SDS011;64853;53.200;6.080;2022-12-29T22:51:17;1.85;;;0.50;;
76121;SDS011;64853;53.200;6.080;2022-12-29T22:56:09;2.40;;;0.50;;
76121;SDS011;64853;53.200;6.080;2022-12-29T23:01:03;1.15;;;0.40;;
76121;SDS011;64853;53.200;6.080;2022-12-29T23:05:55;1.00;;;0.25;;
76121;SDS011;64853;53.200;6.080;2022-12-29T23:10:47;1.42;;;0.35;;
76121;SDS011;64853;53.200;6.080;2022-12-29T23:15:39;1.67;;;0.30;;
76121;SDS011;64853;53.200;6.080;2022-12-29T23:20:31;2.70;;;0.50;;
76121;SDS011;64853;53.200;6.080;2022-12-29T23:25:23;1.70;;;0.38;;
76121;SDS011;64853;53.200;6.080;2022-12-29T23:30:14;3.35;;;0.60;;
76121;SDS011;64853;53.200;6.080;2022-12-29T23:35:06;1.65;;;0.50;;
76121;SDS011;64853;53.200;6.080;2022-12-29T23:39:59;0.73;;;0.20;;
76121;SDS011;64853;53.200;6.080;2022-12-29T23:44:51;1.02;;;0.20;;
76121;SDS011;64853;53.200;6.080;2022-12-29T23:49:43;1.38;;;0.50;;
76121;SDS011;64853;53.200;6.080;2022-12-29T23:54:34;2.08;;;0.43;;
76121;SDS011;64853;53.200;6.080;2022-12-29T23:59:27;2.33;;;0.43;;
